Time;durP1;ratioP1;P1;durP2;ratioP2;P2;SDS_P1;SDS_P2;PMS_P1;PMS_P2;Temp;Humidity;BMP_temperature;BMP_pressure;BME280_temperature;BME280_humidity;BME280_pressure;Samples;Min_cycle;Max_cycle;Signal;HPM_P1;HPM_P2
2023/02/11 01:26:36;;;;;;;43.13;19.73;;;;;;;-0.26;74.12;101648.77;1829183;78;28036;-64
2023/02/11 01:29:06;;;;;;;39.63;18.57;;;;;;;-0.28;74.18;101649.35;1821132;79;21094;-65
2023/02/11 01:31:35;;;;;;;43.35;18.10;;;;;;;-0.26;74.31;101646.95;1821335;79;21587;-65
2023/02/11 01:34:04;;;;;;;35.28;17.62;;;;;;;-0.25;74.41;101647.81;1821423;78;21149;-64
2023/02/11 01:36:33;;;;;;;41.63;17.80;;;;;;;-0.22;74.47;101648.96;1821579;79;21523;-65
2023/02/11 01:39:02;;;;;;;38.83;18.70;;;;;;;-0.23;74.46;101642.71;1821195;79;21114;-64
2023/02/11 01:41:31;;;;;;;37.10;16.82;;;;;;;-0.23;74.50;101651.27;1821414;79;21556;-63
2023/02/11 01:44:31;;;;;;;37.40;17.05;;;;;;;-0.24;74.65;101650.41;1821312;79;21097;-65
2023/02/11 01:47:00;;;;;;;33.55;15.18;;;;;;;-0.25;74.70;101655.41;1821476;79;21121;-64
2023/02/11 01:49:33;;;;;;;36.45;16.12;;;;;;;-0.24;74.93;101659.84;1821287;78;21158;-64
2023/02/11 01:52:18;;;;;;;39.75;16.37;;;;;;;-0.23;75.01;101653.48;1821124;79;21109;-64
2023/02/11 01:57:41;;;;;;;36.77;14.98;;;;;;;-0.21;75.29;101638.09;1821271;79;21602;-63
2023/02/11 02:00:33;;;;;;;33.20;14.95;;;;;;;-0.21;75.39;101637.23;1821373;79;21082;-64
2023/02/11 02:03:07;;;;;;;30.32;14.85;;;;;;;-0.20;75.48;101632.22;1821131;79;21090;-67
2023/02/11 02:05:46;;;;;;;31.33;14.78;;;;;;;-0.21;75.57;101638.09;1821166;79;21082;-65
2023/02/11 02:08:31;;;;;;;33.13;14.93;;;;;;;-0.20;75.73;101633.09;1821405;79;21130;-64
2023/02/11 02:11:01;;;;;;;33.45;14.53;;;;;;;-0.19;75.76;101628.56;1821267;79;21133;-63
2023/02/11 02:13:32;;;;;;;32.30;14.90;;;;;;;-0.17;75.89;101623.47;1821288;78;21087;-63
2023/02/11 02:16:09;;;;;;;32.15;13.38;;;;;;;-0.15;75.99;101620.67;1821121;79;21558;-63
2023/02/11 02:18:50;;;;;;;32.95;14.68;;;;;;;-0.14;76.09;101618.36;1821244;79;21106;-63
2023/02/11 02:22:01;;;;;;;36.48;15.48;;;;;;;-0.13;76.18;101614.70;1821201;78;21090;-65
2023/02/11 02:24:50;;;;;;;29.42;12.50;;;;;;;-0.13;76.24;101616.91;1821396;79;21149;-65
2023/02/11 02:27:34;;;;;;;33.53;13.68;;;;;;;-0.11;76.36;101612.29;1820807;79;21560;-64
2023/02/11 02:30:38;;;;;;;31.20;13.20;;;;;;;-0.11;76.45;101616.81;1820540;79;21194;-64
2023/02/11 02:33:37;;;;;;;31.33;13.18;;;;;;;-0.10;76.55;101611.81;1820582;79;21117;-64
2023/02/11 02:36:33;;;;;;;36.08;14.00;;;;;;;-0.09;76.63;101607.67;1820645;78;21125;-63
2023/02/11 02:39:19;;;;;;;30.75;13.85;;;;;;;-0.09;76.69;101606.80;1820683;79;21392;-64
2023/02/11 02:41:48;;;;;;;32.83;13.50;;;;;;;-0.06;76.71;101611.98;1820653;79;21122;-64
2023/02/11 02:44:18;;;;;;;32.58;13.70;;;;;;;-0.04;76.72;101607.37;1820820;79;21160;-65
2023/02/11 02:46:47;;;;;;;34.05;14.33;;;;;;;-0.04;76.71;101606.02;1820707;79;21105;-64
2023/02/11 02:49:16;;;;;;;31.40;13.07;;;;;;;-0.05;76.77;101605.64;1821170;78;21126;-64
2023/02/11 02:52:12;;;;;;;32.55;13.55;;;;;;;-0.04;76.80;101601.98;1821673;79;21129;-64
2023/02/11 02:55:08;;;;;;;28.25;12.80;;;;;;;-0.04;76.80;101605.54;1820632;78;21647;-66
2023/02/11 02:58:01;;;;;;;29.98;13.20;;;;;;;-0.07;76.87;101611.61;1820517;79;21090;-64
2023/02/11 03:00:42;;;;;;;33.08;13.95;;;;;;;-0.07;76.96;101604.88;1820681;79;21145;-63
2023/02/11 03:03:53;;;;;;;38.90;13.53;;;;;;;-0.06;77.04;101611.98;1818984;79;21074;-65
2023/02/11 03:06:30;;;;;;;35.30;15.20;;;;;;;-0.09;77.13;101613.05;1820488;78;21149;-64
2023/02/11 03:09:10;;;;;;;32.38;14.60;;;;;;;-0.12;77.24;101602.48;1820938;79;21581;-65
2023/02/11 03:11:41;;;;;;;33.50;13.90;;;;;;;-0.12;77.36;101607.00;1820494;78;21141;-63
2023/02/11 03:14:13;;;;;;;32.78;13.43;;;;;;;-0.10;77.42;101603.25;1820668;79;21121;-63
2023/02/11 03:16:41;;;;;;;39.63;14.90;;;;;;;-0.09;77.46;101593.33;1820521;79;21098;-64
2023/02/11 03:19:15;;;;;;;32.45;12.63;;;;;;;-0.10;77.50;101594.30;1820573;78;21102;-63
2023/02/11 03:21:46;;;;;;;28.12;13.20;;;;;;;-0.10;77.57;101596.51;1820551;79;21156;-64
2023/02/11 03:24:26;;;;;;;32.15;13.70;;;;;;;-0.11;77.63;101594.78;1820558;79;21126;-64
2023/02/11 03:26:58;;;;;;;31.57;13.90;;;;;;;-0.11;77.67;101593.92;1819737;79;21610;-65
2023/02/11 03:29:38;;;;;;;30.77;13.45;;;;;;;-0.10;77.70;101592.47;1820730;79;21525;-64
2023/02/11 03:32:24;;;;;;;31.68;13.95;;;;;;;-0.10;77.72;101588.91;1819953;79;21192;-64
2023/02/11 03:35:18;;;;;;;29.77;13.68;;;;;;;-0.09;77.75;101589.30;1820720;79;21118;-64
2023/02/11 03:37:55;;;;;;;31.55;14.05;;;;;;;-0.04;77.79;101587.16;1820455;79;21615;-64
2023/02/11 03:40:30;;;;;;;33.45;13.15;;;;;;;-0.05;77.73;101579.56;1820678;79;21098;-62
2023/02/11 03:43:07;;;;;;;26.12;12.33;;;;;;;-0.03;77.77;101577.62;1820703;79;21544;-64
2023/02/11 03:45:36;;;;;;;33.73;14.57;;;;;;;0.01;77.74;101582.85;1817580;79;21114;-64
2023/02/11 03:48:30;;;;;;;34.48;14.38;;;;;;;0.02;77.72;101577.36;1820527;79;21141;-64
2023/02/11 03:51:01;;;;;;;33.00;14.68;;;;;;;0.03;77.65;101573.70;1820555;79;21571;-63
2023/02/11 03:53:33;;;;;;;33.67;14.80;;;;;;;0.05;77.59;101556.95;1820500;79;21098;-65
2023/02/11 03:56:04;;;;;;;38.80;17.67;;;;;;;0.05;77.59;101558.30;1820623;79;21154;-64
2023/02/11 03:58:33;;;;;;;46.80;23.42;;;;;;;0.06;77.55;101558.68;1820506;79;21110;-63
2023/02/11 04:01:03;;;;;;;45.60;21.62;;;;;;;0.04;77.52;101549.83;1820691;79;21575;-65
2023/02/11 04:03:34;;;;;;;45.90;21.95;;;;;;;0.04;77.60;101553.88;1820502;79;21126;-65
2023/02/11 04:06:03;;;;;;;45.10;18.82;;;;;;;0.05;77.62;101541.27;1820553;79;21145;-63
2023/02/11 04:08:33;;;;;;;46.28;17.77;;;;;;;0.04;77.65;101538.19;1820699;79;21580;-64
2023/02/11 04:11:03;;;;;;;37.35;15.80;;;;;;;0.04;77.66;101545.79;1820471;79;21456;-64
2023/02/11 04:13:33;;;;;;;39.05;15.65;;;;;;;0.02;77.71;101536.08;1820520;79;21501;-63
2023/02/11 04:16:03;;;;;;;38.63;14.70;;;;;;;0.03;77.76;101541.85;1820703;79;21596;-63
2023/02/11 04:18:34;;;;;;;34.38;14.75;;;;;;;0.04;77.83;101539.05;1820451;79;21169;-63
2023/02/11 04:21:03;;;;;;;35.23;14.70;;;;;;;0.06;77.85;101541.16;1820508;78;21129;-65
2023/02/11 04:23:32;;;;;;;44.35;14.50;;;;;;;0.09;77.88;101540.96;1820718;79;21141;-64
2023/02/11 04:26:01;;;;;;;34.43;14.18;;;;;;;0.12;77.83;101531.80;1820687;79;21106;-64
2023/02/11 04:28:31;;;;;;;37.40;15.53;;;;;;;0.12;77.80;101532.67;1820777;79;21090;-64
2023/02/11 04:31:01;;;;;;;38.13;15.15;;;;;;;0.13;77.80;101533.53;1820712;78;21145;-65
2023/02/11 04:33:30;;;;;;;42.85;16.10;;;;;;;0.14;77.81;101530.73;1820785;78;21149;-65
2023/02/11 04:36:03;;;;;;;40.48;15.15;;;;;;;0.15;77.78;101535.16;1820785;79;21557;-64
2023/02/11 04:38:34;;;;;;;37.67;14.73;;;;;;;0.15;77.83;101527.55;1820465;79;21165;-64
2023/02/11 04:41:05;;;;;;;34.13;13.95;;;;;;;0.16;77.75;101527.45;1748751;82;21090;-64
2023/02/11 04:43:35;;;;;;;33.78;15.15;;;;;;;0.15;77.71;101519.47;1748832;82;21686;-64
2023/02/11 04:46:04;;;;;;;39.58;15.80;;;;;;;0.13;77.67;101518.23;1748908;82;21110;-64
2023/02/11 04:48:34;;;;;;;32.88;14.93;;;;;;;0.13;77.74;101510.14;1748865;82;21618;-64
2023/02/11 04:51:04;;;;;;;38.55;14.33;;;;;;;0.14;77.79;101505.62;1748863;81;21150;-65
2023/02/11 04:53:32;;;;;;;34.45;14.68;;;;;;;0.14;77.84;101503.79;1749015;82;21105;-64
2023/02/11 04:56:01;;;;;;;40.58;15.95;;;;;;;0.14;77.89;101506.48;1748925;81;21544;-65
2023/02/11 04:58:30;;;;;;;38.48;16.30;;;;;;;0.13;77.93;101498.50;1762867;78;21564;-65
2023/02/11 05:01:11;;;;;;;40.92;15.93;;;;;;;0.11;77.94;101490.52;1820496;79;21122;-65
2023/02/11 05:03:40;;;;;;;35.35;15.15;;;;;;;0.11;77.98;101497.26;1820502;79;21110;-64
2023/02/11 05:06:09;;;;;;;33.78;15.13;;;;;;;0.12;78.04;101488.69;1820747;79;21154;-63
2023/02/11 05:08:38;;;;;;;34.40;14.87;;;;;;;0.11;78.02;101490.52;1820392;79;21074;-64
2023/02/11 05:11:07;;;;;;;38.92;14.87;;;;;;;0.10;77.97;101487.45;1820489;79;21102;-66
2023/02/11 05:13:36;;;;;;;35.88;14.80;;;;;;;0.07;77.94;101483.61;1820437;79;21098;-64
2023/02/11 05:16:05;;;;;;;31.55;14.93;;;;;;;0.05;77.91;101490.94;1820916;78;21106;-64
2023/02/11 05:18:37;;;;;;;34.78;14.43;;;;;;;0.05;77.92;101492.28;1820663;79;21137;-65
2023/02/11 05:21:13;;;;;;;37.50;14.27;;;;;;;0.05;77.76;101484.20;1820438;78;21098;-66
2023/02/11 05:23:42;;;;;;;33.75;13.78;;;;;;;0.01;77.70;101492.11;1820646;79;21102;-65
2023/02/11 05:26:11;;;;;;;35.50;13.38;;;;;;;-0.02;77.64;101489.59;1819262;78;21106;-64
2023/02/11 05:28:41;;;;;;;31.68;13.15;;;;;;;-0.04;77.63;101488.83;1815997;77;21142;-65
2023/02/11 05:31:09;;;;;;;31.00;13.95;;;;;;;-0.04;77.59;101487.48;1816018;79;21166;-64
2023/02/11 05:33:40;;;;;;;33.53;13.68;;;;;;;-0.06;77.57;101488.93;1815770;79;21165;-65
2023/02/11 05:36:12;;;;;;;28.25;12.00;;;;;;;-0.05;77.53;101490.66;1816168;78;21109;-64
2023/02/11 05:38:42;;;;;;;32.80;13.63;;;;;;;-0.06;77.49;101486.23;1815781;79;21545;-65
2023/02/11 05:41:11;;;;;;;33.33;12.20;;;;;;;-0.07;77.51;101486.34;1816171;79;21086;-64
2023/02/11 05:43:40;;;;;;;31.25;12.80;;;;;;;-0.09;77.59;101471.63;1816037;79;21114;-65
2023/02/11 05:46:09;;;;;;;27.75;11.90;;;;;;;-0.10;77.61;101479.81;1815914;79;21075;-64
2023/02/11 05:48:42;;;;;;;32.33;12.73;;;;;;;-0.10;77.68;101471.73;1816151;79;21193;-65
2023/02/11 05:51:11;;;;;;;34.03;13.18;;;;;;;-0.10;77.76;101482.50;1815828;79;21102;-66
2023/02/11 05:53:40;;;;;;;35.03;14.15;;;;;;;-0.09;77.82;101475.67;1815994;79;21154;-66
2023/02/11 05:56:10;;;;;;;33.80;13.20;;;;;;;-0.08;77.82;101468.45;1816045;79;21921;-66
2023/02/11 05:58:39;;;;;;;26.87;12.35;;;;;;;-0.08;77.91;101465.27;1816069;77;21184;-64
2023/02/11 06:01:08;;;;;;;32.95;13.88;;;;;;;-0.03;77.94;101467.66;1815836;77;21181;-65
2023/02/11 06:03:37;;;;;;;35.00;12.73;;;;;;;0.01;77.83;101449.48;1816135;79;21130;-65
2023/02/11 06:06:11;;;;;;;31.00;12.75;;;;;;;0.02;77.79;101449.38;1816171;79;21086;-65
2023/02/11 06:08:41;;;;;;;31.15;13.60;;;;;;;0.05;77.74;101445.62;1815915;79;21146;-65
2023/02/11 06:11:12;;;;;;;31.05;12.20;;;;;;;0.07;77.69;101439.64;1815965;79;21506;-65
2023/02/11 06:13:44;;;;;;;31.17;12.47;;;;;;;0.10;77.72;101438.08;1816175;78;21138;-64
2023/02/11 06:16:13;;;;;;;29.63;12.18;;;;;;;0.13;77.67;101435.17;1816090;77;21585;-64
2023/02/11 06:18:41;;;;;;;30.50;12.93;;;;;;;0.17;77.60;101438.91;1815955;79;21071;-65
2023/02/11 06:21:10;;;;;;;30.62;13.00;;;;;;;0.20;77.50;101432.44;1816042;79;21605;-66
2023/02/11 06:23:42;;;;;;;30.95;13.08;;;;;;;0.22;77.38;101419.23;1816136;79;21173;-64
2023/02/11 06:26:19;;;;;;;30.20;13.35;;;;;;;0.26;77.25;101427.97;1816003;78;21228;-64
2023/02/11 06:28:48;;;;;;;30.48;13.08;;;;;;;0.27;77.12;101422.95;1815908;79;21671;-65
2023/02/11 06:31:17;;;;;;;34.30;14.45;;;;;;;0.27;76.99;101423.82;1816002;79;21545;-65
2023/02/11 06:33:46;;;;;;;30.35;12.43;;;;;;;0.29;76.95;101418.32;1816297;79;21165;-64
2023/02/11 06:36:18;;;;;;;30.95;13.13;;;;;;;0.30;76.89;101410.13;1815896;79;21107;-64
2023/02/11 06:38:47;;;;;;;29.85;13.65;;;;;;;0.35;76.89;101407.59;1816082;79;21592;-64
2023/02/11 06:41:18;;;;;;;34.60;13.43;;;;;;;0.40;76.80;101397.35;1816006;79;21095;-65
2023/02/11 06:43:47;;;;;;;26.97;12.27;;;;;;;0.45;76.67;101396.54;1816107;79;21184;-64
2023/02/11 06:46:16;;;;;;;28.77;12.25;;;;;;;0.47;76.53;101387.86;1816127;79;21145;-65
2023/02/11 06:48:45;;;;;;;30.88;12.82;;;;;;;0.53;76.39;101396.86;1816034;79;21094;-64
2023/02/11 06:51:14;;;;;;;30.80;12.13;;;;;;;0.57;76.23;101384.40;1816251;79;21094;-64
2023/02/11 06:53:45;;;;;;;27.98;11.50;;;;;;;0.60;75.93;101387.36;1815995;78;21114;-64
2023/02/11 06:56:17;;;;;;;30.43;14.05;;;;;;;0.63;75.79;101379.91;1815897;79;21526;-65
2023/02/11 06:58:46;;;;;;;28.07;12.58;;;;;;;0.66;75.60;101374.82;1815898;79;21098;-64
2023/02/11 07:01:15;;;;;;;27.93;12.33;;;;;;;0.68;75.37;101368.83;1815906;79;21132;-65
2023/02/11 07:03:45;;;;;;;27.90;12.43;;;;;;;0.72;75.23;101364.94;1816271;79;21075;-65
2023/02/11 07:06:19;;;;;;;25.23;11.25;;;;;;;0.78;75.20;101365.84;1816297;79;21122;-66
2023/02/11 07:08:49;;;;;;;29.95;12.05;;;;;;;0.83;75.07;101367.72;1816130;79;21142;-63
2023/02/11 07:11:26;;;;;;;28.42;11.80;;;;;;;0.87;74.91;101358.42;1815925;78;21667;-65
2023/02/11 07:14:01;;;;;;;26.70;12.47;;;;;;;0.90;74.74;101363.59;1816197;79;21141;-65
2023/02/11 07:16:32;;;;;;;31.27;12.35;;;;;;;0.92;74.53;101358.95;1815931;79;21098;-66
2023/02/11 07:19:02;;;;;;;33.33;13.00;;;;;;;0.94;74.45;101363.75;1815866;79;21091;-65
2023/02/11 07:21:31;;;;;;;27.52;12.15;;;;;;;0.95;74.32;101364.61;1815940;79;21573;-64
2023/02/11 07:24:08;;;;;;;24.87;11.22;;;;;;;0.98;74.38;101364.88;1815950;79;21607;-64
2023/02/11 07:26:40;;;;;;;27.05;11.00;;;;;;;0.99;74.39;101365.25;1815964;77;21122;-65
2023/02/11 07:29:10;;;;;;;25.35;12.10;;;;;;;0.97;74.38;101367.20;1816154;79;21206;-66
2023/02/11 07:31:39;;;;;;;26.07;11.40;;;;;;;0.92;74.43;101365.70;1816200;79;21133;-63
2023/02/11 07:34:11;;;;;;;29.90;12.05;;;;;;;0.91;74.59;101369.37;1816109;79;21146;-64
2023/02/11 07:36:42;;;;;;;30.55;14.05;;;;;;;0.91;74.69;101365.32;1815833;77;21541;-64
2023/02/11 07:39:12;;;;;;;29.70;13.50;;;;;;;0.92;74.80;101362.14;1815930;79;21122;-65
2023/02/11 07:41:43;;;;;;;30.45;13.35;;;;;;;0.91;74.93;101353.19;1815909;79;21553;-63
2023/02/11 07:44:13;;;;;;;29.25;13.32;;;;;;;0.90;75.07;101355.50;1815878;79;21102;-65
2023/02/11 07:46:43;;;;;;;31.48;13.13;;;;;;;0.92;75.15;101356.74;1815868;79;21146;-64
2023/02/11 07:49:12;;;;;;;33.38;13.78;;;;;;;0.91;75.34;101349.13;1815948;79;21548;-65
2023/02/11 07:51:42;;;;;;;35.40;13.60;;;;;;;0.93;75.41;101351.23;1816022;79;21087;-65
2023/02/11 07:54:11;;;;;;;31.93;14.53;;;;;;;0.90;75.45;101342.02;1816005;77;21506;-64
2023/02/11 07:56:41;;;;;;;33.92;13.68;;;;;;;0.89;75.73;101334.03;1816141;79;21094;-64
2023/02/11 07:59:10;;;;;;;36.48;14.68;;;;;;;0.86;75.89;101323.47;1816032;79;21098;-65
2023/02/11 08:01:39;;;;;;;38.38;15.38;;;;;;;0.86;76.02;101322.98;1815913;79;21126;-66
2023/02/11 08:04:08;;;;;;;38.48;15.63;;;;;;;0.85;76.23;101314.52;1815949;79;21745;-65
2023/02/11 08:06:41;;;;;;;32.98;14.33;;;;;;;0.86;76.44;101308.14;1815889;79;21161;-65
2023/02/11 08:09:14;;;;;;;40.83;16.50;;;;;;;0.89;76.67;101302.52;1815968;79;21126;-66
2023/02/11 08:11:43;;;;;;;37.63;14.93;;;;;;;0.92;76.83;101294.20;1816070;79;21070;-65
2023/02/11 08:14:11;;;;;;;38.02;15.68;;;;;;;0.95;76.92;101296.66;1815857;78;21148;-63
2023/02/11 08:16:42;;;;;;;29.40;14.43;;;;;;;0.99;77.01;101293.73;1815921;79;21087;-64
2023/02/11 08:19:14;;;;;;;35.68;15.68;;;;;;;1.01;77.10;101295.34;1816043;79;21122;-65
2023/02/11 08:21:43;;;;;;;38.78;15.50;;;;;;;1.03;77.16;101285.79;1816223;79;21549;-66
2023/02/11 08:24:13;;;;;;;37.00;15.68;;;;;;;1.06;77.26;101286.91;1816023;79;21110;-65
2023/02/11 08:26:43;;;;;;;44.48;16.57;;;;;;;1.07;77.37;101288.14;1816116;79;21185;-65
2023/02/11 08:29:13;;;;;;;39.90;16.00;;;;;;;1.12;77.49;101280.56;1719758;83;21126;-64
2023/02/11 08:31:44;;;;;;;40.95;16.40;;;;;;;1.15;77.54;101282.17;1719600;83;21142;-65
2023/02/11 08:34:21;;;;;;;43.83;17.25;;;;;;;1.16;77.60;101282.54;1719791;82;21146;-65
2023/02/11 08:36:49;;;;;;;40.83;16.12;;;;;;;1.18;77.64;101285.98;1719533;83;21275;-63
2023/02/11 08:39:21;;;;;;;40.25;17.60;;;;;;;1.18;77.74;101280.09;1719585;82;21102;-64
2023/02/11 08:41:52;;;;;;;37.45;16.17;;;;;;;1.21;77.77;101273.12;1719698;83;21104;-66
2023/02/11 08:44:23;;;;;;;42.38;16.93;;;;;;;1.23;77.84;101275.70;1719814;83;21169;-64
2023/02/11 08:46:52;;;;;;;41.10;16.52;;;;;;;1.24;77.89;101280.98;1748766;79;21130;-66
2023/02/11 08:49:22;;;;;;;38.30;16.15;;;;;;;1.23;77.92;101280.61;1815931;79;21090;-64
2023/02/11 08:51:50;;;;;;;36.63;15.70;;;;;;;1.24;77.98;101267.97;1816353;79;21181;-65
2023/02/11 08:54:21;;;;;;;40.40;16.30;;;;;;;1.26;78.05;101253.38;1815880;79;21138;-65
2023/02/11 08:56:51;;;;;;;40.30;16.40;;;;;;;1.28;78.03;101247.37;1816150;78;21122;-64
2023/02/11 08:59:23;;;;;;;45.23;17.23;;;;;;;1.33;78.11;101255.64;1816031;79;21087;-65
2023/02/11 09:01:51;;;;;;;47.60;15.45;;;;;;;1.36;78.09;101252.22;1810871;79;21621;-63
2023/02/11 09:04:20;;;;;;;25.35;10.78;;;;;;;1.37;78.05;101244.98;1801891;77;21191;-63
2023/02/11 09:06:51;;;;;;;33.10;14.13;;;;;;;1.46;80.69;101241.08;1803682;79;21585;-64
2023/02/11 09:09:20;;;;;;;38.45;14.10;;;;;;;2.01;82.83;101240.83;1813818;78;21776;-63
2023/02/11 09:11:48;;;;;;;34.27;14.43;;;;;;;2.59;81.88;101240.17;1794355;79;21594;-63
2023/02/11 09:14:20;;;;;;;33.90;15.48;;;;;;;3.02;80.58;101242.91;1798887;79;21112;-62
2023/02/11 09:16:50;;;;;;;31.10;13.93;;;;;;;3.30;78.13;101231.14;1765067;81;21144;-64
2023/02/11 09:19:19;;;;;;;35.40;15.18;;;;;;;3.43;76.95;101221.83;1764815;80;21555;-62
2023/02/11 09:21:49;;;;;;;32.40;14.50;;;;;;;3.52;75.39;101217.97;1813990;78;21098;-62
2023/02/11 09:24:18;;;;;;;37.90;15.93;;;;;;;3.63;74.93;101211.98;1768066;79;21624;-62
2023/02/11 09:26:48;;;;;;;32.05;13.80;;;;;;;3.73;72.93;101207.48;1764630;81;21186;-62
2023/02/11 09:29:16;;;;;;;34.08;15.15;;;;;;;3.62;72.53;101186.37;1785111;80;21087;-62
2023/02/11 09:31:47;;;;;;;40.50;16.42;;;;;;;3.68;72.19;101184.48;1755287;82;21554;-64
2023/02/11 09:34:16;;;;;;;29.35;13.83;;;;;;;3.85;72.25;101186.56;1755172;82;21178;-63
2023/02/11 09:36:45;;;;;;;52.50;19.55;;;;;;;4.03;71.61;101179.55;1757277;81;21565;-63
2023/02/11 09:39:17;;;;;;;61.15;26.07;;;;;;;4.12;69.86;101177.37;1756421;82;21130;-63
2023/02/11 09:42:08;;;;;;;78.17;34.92;;;;;;;3.97;69.63;101175.17;1755485;81;21146;-63
2023/02/11 09:44:39;;;;;;;44.48;19.57;;;;;;;4.00;69.91;101170.33;1755812;81;21114;-61
2023/02/11 09:47:39;;;;;;;43.02;19.75;;;;;;;4.18;69.49;101171.89;1755823;82;21166;-63
2023/02/11 09:50:24;;;;;;;41.25;18.70;;;;;;;4.12;68.83;101173.80;1755200;81;21609;-63
2023/02/11 09:53:23;;;;;;;41.00;18.37;;;;;;;4.08;69.62;101162.37;1742161;82;21578;-60
2023/02/11 09:55:54;;;;;;;36.80;17.20;;;;;;;4.07;69.22;101163.36;1753551;82;21297;-63
2023/02/11 09:58:34;;;;;;;33.63;15.95;;;;;;;4.01;69.80;101150.85;1755315;81;21544;-63
2023/02/11 10:01:39;;;;;;;38.58;16.67;;;;;;;4.07;69.84;101150.30;1755622;81;21550;-62
2023/02/11 10:04:32;;;;;;;36.85;17.00;;;;;;;4.05;69.91;101143.66;1755398;82;21503;-65
2023/02/11 10:07:31;;;;;;;36.48;17.32;;;;;;;4.07;69.58;101134.89;1755597;81;21115;-65
2023/02/11 10:10:36;;;;;;;36.40;17.15;;;;;;;3.76;69.42;101126.39;1755285;81;21588;-64
2023/02/11 10:13:26;;;;;;;35.15;16.70;;;;;;;3.36;70.21;101124.48;1752531;80;21647;-64
2023/02/11 10:16:12;;;;;;;43.52;18.07;;;;;;;3.07;71.07;101120.20;1732098;82;21546;-64
2023/02/11 10:19:19;;;;;;;40.83;18.82;;;;;;;2.85;71.77;101121.18;1723463;83;21177;-65
2023/02/11 10:22:08;;;;;;;41.80;18.25;;;;;;;2.65;72.58;101115.25;1722287;83;21154;-64
2023/02/11 10:24:37;;;;;;;41.18;18.40;;;;;;;2.47;73.48;101097.83;1723345;83;21189;-65
2023/02/11 10:27:23;;;;;;;41.53;18.75;;;;;;;2.38;74.23;101086.42;1693418;83;21189;-65
2023/02/11 10:29:56;;;;;;;39.35;18.67;;;;;;;2.29;74.72;101079.94;1722818;83;21165;-64
2023/02/11 10:32:48;;;;;;;39.92;18.80;;;;;;;2.23;75.39;101081.80;1723336;83;21205;-63
2023/02/11 10:35:20;;;;;;;37.20;18.52;;;;;;;2.22;75.73;101080.09;1779656;80;21599;-65
2023/02/11 10:37:49;;;;;;;43.30;19.52;;;;;;;2.17;76.10;101083.67;1789691;80;21392;-65
2023/02/11 10:40:24;;;;;;;42.35;18.42;;;;;;;2.15;76.71;101074.33;1778852;80;21175;-64
2023/02/11 10:43:03;;;;;;;36.55;17.27;;;;;;;2.14;76.97;101073.96;1783945;80;21189;-65
2023/02/11 10:45:47;;;;;;;38.53;18.02;;;;;;;2.16;77.19;101069.29;1784360;80;21082;-63
2023/02/11 10:48:45;;;;;;;36.95;16.60;;;;;;;2.16;77.51;101066.59;1783855;80;21644;-65
2023/02/11 10:51:26;;;;;;;38.50;16.82;;;;;;;2.15;77.63;101058.11;1784253;80;21174;-64
2023/02/11 10:54:12;;;;;;;45.55;18.50;;;;;;;2.09;77.84;101057.27;1783804;80;21154;-65
2023/02/11 10:56:49;;;;;;;43.33;18.98;;;;;;;2.08;78.10;101056.05;1789898;80;21157;-64
2023/02/11 10:59:28;;;;;;;40.98;18.02;;;;;;;2.08;78.31;101043.87;1630647;87;21700;-64
2023/02/11 11:02:03;;;;;;;47.70;20.32;;;;;;;2.11;78.41;101043.13;1630112;87;21156;-64
2023/02/11 11:04:44;;;;;;;38.85;18.60;;;;;;;2.13;78.68;101035.75;1630488;88;21191;-63
2023/02/11 11:07:24;;;;;;;35.43;17.12;;;;;;;2.17;78.96;101026.40;1609432;88;21220;-63
2023/02/11 11:09:58;;;;;;;40.83;16.85;;;;;;;2.19;78.97;101024.92;1630155;88;21234;-64
2023/02/11 11:12:46;;;;;;;37.15;16.42;;;;;;;2.21;78.87;101020.25;1661573;85;21142;-64
2023/02/11 11:15:28;;;;;;;37.53;17.52;;;;;;;2.18;78.86;101008.34;1692270;84;21204;-63
2023/02/11 11:18:15;;;;;;;39.00;17.80;;;;;;;2.14;78.58;101006.38;1780864;79;21097;-65
2023/02/11 11:21:06;;;;;;;36.45;16.93;;;;;;;2.12;78.84;100994.84;1819401;79;21505;-64
2023/02/11 11:23:35;;;;;;;36.20;17.57;;;;;;;2.13;78.98;100988.45;1820402;78;21531;-63
2023/02/11 11:26:13;;;;;;;35.63;16.55;;;;;;;2.16;79.09;100987.33;1712656;83;21158;-66
2023/02/11 11:28:57;;;;;;;37.15;16.65;;;;;;;2.18;79.15;100986.22;1680712;84;21614;-64
2023/02/11 11:31:31;;;;;;;36.15;15.93;;;;;;;2.20;79.18;100965.31;1680766;85;21221;-64
2023/02/11 11:34:07;;;;;;;35.00;16.93;;;;;;;2.21;79.20;100960.77;1680530;84;21186;-63
2023/02/11 11:36:37;;;;;;;37.70;16.37;;;;;;;2.23;79.32;100956.09;1677416;85;21559;-64
2023/02/11 11:39:28;;;;;;;33.73;16.00;;;;;;;2.28;79.42;100955.69;1712741;84;21573;-63
2023/02/11 11:42:02;;;;;;;35.75;16.97;;;;;;;2.28;79.55;100944.39;1680820;85;21571;-65
2023/02/11 11:44:35;;;;;;;35.55;17.55;;;;;;;2.30;79.76;100948.31;1776845;79;21145;-63
2023/02/11 11:47:18;;;;;;;35.17;16.90;;;;;;;2.34;80.09;100947.92;1820175;79;21160;-63
2023/02/11 11:50:14;;;;;;;37.30;16.42;;;;;;;2.35;80.23;100937.95;1820101;79;21188;-64
2023/02/11 11:52:55;;;;;;;35.70;16.27;;;;;;;2.33;80.43;100921.87;1820256;79;21611;-64
2023/02/11 11:55:34;;;;;;;35.95;16.95;;;;;;;2.34;80.68;100911.41;1762239;79;21121;-64
2023/02/11 11:58:05;;;;;;;35.90;16.50;;;;;;;2.37;80.90;100908.94;1813934;79;21516;-64
2023/02/11 12:00:54;;;;;;;39.05;18.37;;;;;;;2.37;80.88;100903.03;1820318;79;21525;-64
2023/02/11 12:03:43;;;;;;;35.88;17.60;;;;;;;2.36;80.78;100906.73;1820470;78;21165;-63
2023/02/11 12:06:38;;;;;;;38.05;16.50;;;;;;;2.33;80.74;100902.08;1819930;79;21630;-63
2023/02/11 12:09:23;;;;;;;34.75;16.93;;;;;;;2.30;80.79;100897.80;1820145;79;21595;-65
2023/02/11 12:12:19;;;;;;;36.25;17.17;;;;;;;2.30;80.75;100887.47;1828623;78;21102;-63
2023/02/11 12:15:27;;;;;;;34.53;15.98;;;;;;;2.27;80.72;100867.46;1821595;78;21533;-64
2023/02/11 12:18:23;;;;;;;34.05;16.90;;;;;;;2.23;80.75;100865.02;1813429;79;22043;-63
2023/02/11 12:21:21;;;;;;;34.95;16.55;;;;;;;2.21;81.08;100857.54;1813503;79;21083;-64
2023/02/11 12:24:12;;;;;;;36.05;17.50;;;;;;;2.22;81.26;100852.50;1813673;79;21111;-63
2023/02/11 12:26:54;;;;;;;35.60;17.02;;;;;;;2.27;81.26;100856.16;1813514;79;21631;-66
2023/02/11 12:29:51;;;;;;;32.88;15.35;;;;;;;2.30;81.11;100837.45;1813415;78;21710;-64
2023/02/11 12:33:05;;;;;;;34.27;16.25;;;;;;;2.32;81.15;100828.72;1813768;79;21091;-64
2023/02/11 12:36:01;;;;;;;34.78;18.20;;;;;;;2.36;81.14;100823.40;1813685;79;21082;-65
2023/02/11 12:38:52;;;;;;;33.90;17.00;;;;;;;2.36;80.79;100816.64;1813635;79;21502;-63
2023/02/11 12:44:38;;;;;;;33.38;15.98;;;;;;;2.33;80.44;100803.39;1747331;79;21577;-63
2023/02/11 12:47:33;;;;;;;32.80;16.23;;;;;;;2.36;80.15;100802.63;1813598;79;21170;-63
2023/02/11 12:50:34;;;;;;;30.80;16.25;;;;;;;2.37;80.04;100804.83;1751499;79;21119;-62
2023/02/11 12:53:27;;;;;;;32.65;16.50;;;;;;;2.39;80.01;100790.19;1801917;79;21174;-64
2023/02/11 12:56:01;;;;;;;34.67;16.15;;;;;;;2.44;79.68;100797.89;1813461;79;21122;-63
2023/02/11 12:58:34;;;;;;;32.13;16.27;;;;;;;2.46;79.54;100797.26;1712779;83;21133;-63
2023/02/11 13:01:12;;;;;;;38.50;16.15;;;;;;;2.47;79.23;100794.91;1711292;83;21559;-63
2023/02/11 13:03:46;;;;;;;29.75;14.58;;;;;;;2.48;78.90;100792.07;1712682;84;21194;-64
2023/02/11 13:06:21;;;;;;;34.15;15.43;;;;;;;2.49;78.64;100786.17;1712416;84;21134;-65
2023/02/11 13:08:57;;;;;;;34.78;15.70;;;;;;;2.49;78.59;100778.91;1712818;84;21162;-64
2023/02/11 13:11:33;;;;;;;34.30;15.38;;;;;;;2.52;78.65;100762.91;1720313;82;21150;-65
2023/02/11 13:14:28;;;;;;;30.48;14.60;;;;;;;2.54;78.50;100763.13;1729991;82;21667;-66
2023/02/11 13:16:57;;;;;;;34.30;16.37;;;;;;;2.56;78.11;100753.52;1780200;79;21130;-65
2023/02/11 13:19:52;;;;;;;35.08;15.30;;;;;;;2.57;77.76;100747.62;1820184;78;21132;-64
2023/02/11 13:22:43;;;;;;;31.00;14.50;;;;;;;2.57;77.64;100741.71;1820018;78;21125;-65
2023/02/11 13:25:49;;;;;;;28.57;13.65;;;;;;;2.59;77.42;100734.31;1819842;79;21599;-63
2023/02/11 13:28:55;;;;;;;25.80;13.05;;;;;;;2.61;77.19;100727.44;1820158;79;21121;-61